Thornaby-on-Tees, United Kingdom
Current Conditions -  °F | °C
As of 2:50 PM on Wednesday 26 Nov 2014 (Local Time) from EGNV Reporting Station
Light Rain Light Rain  
Wind Chill: 45°   Ceiling: 2100
Heat Index: 45°   Visibility: 3mi
Dew Point: 43°   Wind: 3mph
Humidity: 93%   Direction: NA
Pressure: 29.88"   Gusts: NA
Location:  54.54°N, 1.29°W
Report Text: EGNV 261450Z VRB03KT 5000 -RA SCT010 BKN021 07/06 Q1012
Loading
Personal Weather Stations






























Interactive Weather Map New forecast layout! Learn more

10-Day Weather Forecast

Advertisements
Track Severe Weather on mobile